METAR Data
IDs: Format: Raw Decoded Include TAF

Data at: 1817 UTC 21 Sep 2018

KORG 211755Z AUTO 15006KT 10SM VCTS CLR 30/27 A2999 RMK AO2 LTG DSNT W THRU NE T03030268 10309 20265
KORG 211735Z AUTO 17004KT 10SM CLR 30/27 A3000 RMK AO2 LTG DSNT N T02960271
KORG 211715Z AUTO 00000KT 10SM CLR 29/27 A3001 RMK AO2 LTG DSNT N T02860271
KORG 211655Z AUTO 06004KT 10SM SCT027 SCT033 28/27 A3001 RMK AO2 LTG DSNT N AND NW T02820270
KORG 211635Z AUTO 00000KT 10SM TS SCT027 SCT033 SCT039 28/27 A3002 RMK AO2 LTG DSNT N AND NE T02790273
KORG 211615Z AUTO 00000KT 10SM TS SCT031 SCT043 SCT085 27/27 A3001 RMK AO2 LTG DSNT W THRU E T02730268
KORG 211555Z AUTO 00000KT 5SM -VCTSRA SCT021 SCT044 OVC085 27/26 A3002 RMK AO2 LTG DSNT NW THRU NE T02680263
KORG 211535Z AUTO 00000KT 10SM TS SCT023 SCT046 BKN080 27/27 A3002 RMK AO2 LTG DSNT N AND NW T02700265
KORG 211515Z AUTO 19003KT 10SM TS SCT027 SCT043 SCT060 28/26 A3002 RMK AO2 LTG DSNT N AND NE T02820255
KORG 211455Z AUTO 12005KT 10SM TS SCT020 BKN027 BKN038 29/25 A3002 RMK AO2 LTG DSNT E T02850248
KORG 211435Z AUTO 17008KT 10SM BKN020 BKN028 BKN037 30/27 A3001 RMK AO2 LTG DSNT W T03000265
KORG 211415Z AUTO 13006KT 10SM TS SCT018 SCT025 SCT031 30/27 A3001 RMK AO2 LTG DSNT NW T03030272
KORG 211355Z AUTO 14005KT 10SM SCT020 SCT026 30/27 A3002 RMK AO2 LTG DSNT W T02990270
KORG 211335Z AUTO 12003KT 10SM SCT020 SCT028 29/27 A3001 RMK AO2 T02850270
KORG 211315Z AUTO 12003KT 10SM SCT028 SCT033 28/27 A3001 RMK AO2 T02790269
KORG 211255Z AUTO 00000KT 10SM CLR 27/27 A3001 RMK AO2 LTG DSNT E T02700268
KORG 211235Z AUTO 00000KT 10SM -DZ CLR 27/27 A3000 RMK AO2 T02670265
KORG 211215Z AUTO 00000KT 10SM -RA CLR 27/26 A3000 RMK AO2 T02700263
KORG 211155Z AUTO 00000KT 10SM CLR 28/26 A3000 RMK AO2 LTG DSNT E T02750263 10275 20266
KORG 211135Z AUTO 13003KT 10SM CLR 28/26 A2999 RMK AO2 T02750264
KORG 211115Z AUTO 13003KT 10SM CLR 28/26 A2999 RMK AO2 T02750263
KORG 211055Z AUTO 00000KT 10SM CLR 27/26 A2998 RMK AO2 T02720262
KORG 211035Z AUTO 00000KT 10SM CLR 27/26 A2999 RMK AO2 T02700260
KORG 211015Z AUTO 18003KT 10SM CLR 27/26 A2998 RMK AO2 T02720260
KORG 210955Z AUTO 15004KT 10SM CLR 27/26 A2997 RMK AO2 T02740262
KORG 210935Z AUTO 16003KT 10SM CLR 27/26 A2997 RMK AO2 T02710262
KORG 210915Z AUTO 00000KT 10SM CLR 27/26 A2997 RMK AO2 T02700260
KORG 210855Z AUTO 00000KT 10SM CLR 27/26 A2997 RMK AO2 T02710260
KORG 210835Z AUTO 16003KT 10SM CLR 27/26 A2997 RMK AO2 T02720261
KORG 210815Z AUTO 15003KT 10SM -RA CLR 27/26 A2998 RMK AO2 T02710260
KORG 210755Z AUTO 17003KT 10SM CLR 27/26 A2998 RMK AO2 T02700260
KORG 210735Z AUTO 15003KT 10SM CLR 27/26 A2998 RMK AO2 T02700258
KORG 210715Z AUTO 00000KT 10SM CLR 27/26 A2998 RMK AO2 T02680258
KORG 210655Z AUTO 00000KT 10SM CLR 27/26 A2998 RMK AO2 T02670258
KORG 210635Z AUTO 00000KT 10SM CLR 27/26 A2999 RMK AO2 T02660257
KORG 210615Z AUTO 00000KT 10SM CLR 27/26 A3000 RMK AO2 T02660257
KORG 210555Z AUTO 00000KT 10SM CLR 27/26 A3000 RMK AO2 T02680257 10292 20268 403280230
KORG 210535Z AUTO 00000KT 10SM CLR 27/26 A3000 RMK AO2 T02710257
KORG 210515Z AUTO 15003KT 10SM CLR 27/26 A3000 RMK AO2 T02720258
KORG 210455Z AUTO 16003KT 10SM CLR 27/26 A3000 RMK AO2 T02710260
KORG 210435Z AUTO 15003KT 10SM CLR 27/26 A3001 RMK AO2 T02700260
KORG 210415Z AUTO 00000KT 10SM CLR 27/26 A3000 RMK AO2 T02700260
KORG 210355Z AUTO 17003KT 10SM CLR 27/26 A3001 RMK AO2 T02700259
KORG 210335Z AUTO 17003KT 10SM SCT023 27/26 A3001 RMK AO2 T02720257
KORG 210315Z AUTO 17003KT 10SM SCT023 27/26 A3001 RMK AO2 T02730258
KORG 210255Z AUTO 00000KT 10SM CLR 28/26 A3000 RMK AO2 T02750256
KORG 210235Z AUTO 00000KT 10SM CLR 28/26 A3000 RMK AO2 T02750256
KORG 210215Z AUTO 00000KT 10SM CLR 28/26 A2999 RMK AO2 T02750257
KORG 210155Z AUTO 17003KT 10SM CLR 28/26 A2998 RMK AO2 T02760257
KORG 210135Z AUTO 18003KT 10SM CLR 28/26 A2997 RMK AO2 T02780256
KORG 210115Z AUTO 15004KT 10SM CLR 28/26 A2996 RMK AO2 T02800255
KORG 210055Z AUTO 17005KT 10SM CLR 28/26 A2996 RMK AO2 LTG DSNT NW T02830255
KORG 210035Z AUTO 15005KT 10SM CLR 29/26 A2995 RMK AO2 LTG DSNT NW T02860256
KORG 210015Z AUTO 15005KT 10SM CLR 29/25 A2995 RMK AO2 LTG DSNT NW T02870254
KORG 202355Z AUTO 17006KT 10SM CLR 29/25 A2995 RMK AO2 T02930252 10328 20293
KORG 202335Z AUTO 16006KT 10SM SCT031 30/25 A2995 RMK AO2 T02970253
KORG 202315Z AUTO 17005KT 10SM CLR 30/25 A2995 RMK AO2 T03020252
KORG 202255Z AUTO 17006KT 10SM CLR 30/25 A2995 RMK AO2 T03030250
KORG 202235Z AUTO 17008KT 10SM SCT034 31/25 A2995 RMK AO2 T03100251
KORG 202215Z AUTO 17007KT 10SM SCT034 32/25 A2995 RMK AO2 T03150245
KORG 202155Z AUTO 18009KT 10SM SCT039 32/24 A2995 RMK AO2 T03200244
KORG 202135Z AUTO 15008KT 10SM BKN037 BKN043 32/24 A2995 RMK AO2 T03240240
KORG 202115Z AUTO 21008KT 10SM BKN035 BKN041 33/25 A2995 RMK AO2 T03250250
KORG 202055Z AUTO 19009KT 10SM CLR 32/25 A2995 RMK AO2 T03240250
KORG 202035Z AUTO 19006KT 10SM CLR 32/25 A2995 RMK AO2 LTG DSNT N AND NE T03240250
KORG 202015Z AUTO 21011KT 10SM CLR 32/25 A2996 RMK AO2 T03230246
KORG 201955Z AUTO 20009KT 10SM CLR 33/24 A2997 RMK AO2 LTG DSNT N T03250244
KORG 201935Z AUTO 20007KT 10SM CLR 33/25 A2998 RMK AO2 LTG DSNT NE T03250247
KORG 201915Z AUTO 20009KT 10SM SCT035 33/25 A2998 RMK AO2 LTG DSNT NE T03250248
KORG 201855Z AUTO 21008KT 10SM BKN035 BKN048 33/25 A2998 RMK AO2 LTG DSNT N AND NE T03260251
KORG 201835Z AUTO 20008KT 10SM BKN035 BKN048 33/25 A2999 RMK AO2 LTG DSNT N AND NW T03250252
KORG 201815Z AUTO 18008KT 160V230 10SM SCT037 SCT050 33/25 A3000 RMK AO2 T03250249
KORG 201755Z AUTO 17005KT 10SM BKN039 BKN050 31/25 A3001 RMK AO2 T03140245 10325 20230
KORG 201735Z AUTO 16006KT 10SM SCT037 SCT047 32/24 A3002 RMK AO2 T03220244
KORG 201715Z AUTO 17005KT 10SM BKN037 BKN045 32/25 A3002 RMK AO2 LTG DSNT NW T03170245
KORG 201655Z AUTO 20009KT 10SM SCT035 SCT049 32/25 A3002 RMK AO2 LTG DSNT NW T03220250
KORG 201635Z AUTO 17007KT 10SM SCT031 BKN039 32/25 A3003 RMK AO2 LTG DSNT SW T03200250
KORG 201615Z AUTO 18005KT 10SM SCT030 BKN039 31/25 A3003 RMK AO2 T03070251
KORG 201555Z AUTO 14003KT 10SM SCT030 SCT036 SCT043 31/25 A3003 RMK AO2 T03050250
KORG 201535Z AUTO 12004KT 10SM SCT031 31/26 A3003 RMK AO2 T03060259
KORG 201515Z AUTO 14004KT 10SM SCT015 SCT020 BKN031 30/26 A3002 RMK AO2 T02980259
KORG 201455Z AUTO 12004KT 10SM SCT017 BKN027 30/26 A3002 RMK AO2 T02980263
KORG 201435Z AUTO 08004KT 10SM SCT017 29/27 A3001 RMK AO2 T02920266
KORG 201415Z AUTO 10003KT 10SM CLR 28/27 A3001 RMK AO2 T02810265
KORG 201355Z AUTO 10003KT 10SM CLR 27/26 A3000 RMK AO2 T02710261
KORG 201335Z AUTO 08003KT 10SM CLR 26/26 A3000 RMK AO2 T02610260
KORG 201315Z AUTO 00000KT 7SM CLR 25/25 A3000 RMK AO2 T02500250
KORG 201255Z AUTO 00000KT 5SM BR CLR 24/24 A2999 RMK AO2 T02420242
KORG 201235Z AUTO 00000KT 3SM BR SCT020 24/24 A2999 RMK AO2 T02350235
KORG 201215Z AUTO 00000KT 3SM BR SCT022 23/23 A2998 RMK AO2 T02310231
KORG 201155Z AUTO 00000KT 4SM BR SCT020 SCT027 23/23 A2998 RMK AO2 T02320232 10242 20230
KORG 201135Z AUTO 00000KT 5SM BR BKN018 BKN027 24/24 A2998 RMK AO2 T02350235
KORG 201115Z AUTO 00000KT 4SM BR BKN018 BKN024 23/23 A2998 RMK AO2 T02320232
KORG 201055Z AUTO 00000KT 4SM BR SCT020 23/23 A2997 RMK AO2 T02300230
KORG 201035Z AUTO 00000KT 4SM BR SCT020 23/23 A2997 RMK AO2 T02300230
KORG 201015Z AUTO 00000KT 4SM BR CLR 23/23 A2996 RMK AO2 T02300230
KORG 200955Z AUTO 00000KT 4SM BR CLR 23/23 A2996 RMK AO2 T02310231
KORG 200935Z AUTO 00000KT 4SM BR CLR 23/23 A2996 RMK AO2 T02310231
KORG 200915Z AUTO 00000KT 3SM BR CLR 23/23 A2996 RMK AO2 T02300230
KORG 200855Z AUTO 00000KT 4SM BR CLR 23/23 A2997 RMK AO2 T02320232
KORG 200835Z AUTO 00000KT 4SM BR CLR 23/23 A2996 RMK AO2 T02320232
KORG 200815Z AUTO 00000KT 3SM BR CLR 23/23 A2997 RMK AO2 T02330233
KORG 200755Z AUTO 00000KT 5SM BR CLR 24/24 A2997 RMK AO2 T02350235
KORG 200735Z AUTO 00000KT 5SM BR CLR 24/24 A2997 RMK AO2 T02370237
KORG 200715Z AUTO 00000KT 7SM CLR 24/24 A2998 RMK AO2 T02420242
KORG 200655Z AUTO 00000KT 7SM CLR 24/24 A2998 RMK AO2 T02420242
KORG 200635Z AUTO 00000KT 7SM CLR 24/24 A2998 RMK AO2 T02380238